Time;durP1;ratioP1;P1;durP2;ratioP2;P2;SDS_P1;SDS_P2;PMS_P1;PMS_P2;Temp;Humidity;BMP_temperature;BMP_pressure;BME280_temperature;BME280_humidity;BME280_pressure;Samples;Min_cycle;Max_cycle;Signal;HPM_P1;HPM_P2
2022/08/26 00:01:05;;;;;;;;;;;;;;;20.48;56.84;100863.97;5040087;28;19929;-77
2022/08/26 00:03:30;;;;;;;;;;;;;;;20.51;56.54;100866.41;5040684;28;19925;-77
2022/08/26 00:05:56;;;;;;;;;;;;;;;20.52;56.57;100873.41;5020849;28;19929;-77
2022/08/26 00:08:21;;;;;;;;;;;;;;;20.53;56.91;100868.97;5041698;28;19964;-77
2022/08/26 00:10:47;;;;;;;;;;;;;;;20.54;57.12;100870.66;5038108;28;19970;-77
2022/08/26 00:13:13;;;;;;;;;;;;;;;20.54;57.71;100871.50;5039047;28;19991;-77
2022/08/26 00:15:38;;;;;;;;;;;;;;;20.53;58.10;100877.72;5039337;28;19921;-77
2022/08/26 00:18:04;;;;;;;;;;;;;;;20.54;58.52;100878.56;5042493;28;20340;-76
2022/08/26 00:20:30;;;;;;;;;;;;;;;20.54;58.94;100883.84;5038879;28;19924;-77
2022/08/26 00:22:56;;;;;;;;;;;;;;;20.55;59.20;100880.28;5037126;28;19921;-77
2022/08/26 00:25:21;;;;;;;;;;;;;;;20.53;59.44;100885.63;5039863;28;19917;-77
2022/08/26 00:27:47;;;;;;;;;;;;;;;20.53;59.91;100896.19;5020316;28;19948;-77
2022/08/26 00:30:13;;;;;;;;;;;;;;;20.52;60.76;100896.31;5039888;28;20018;-77
2022/08/26 00:32:39;;;;;;;;;;;;;;;20.52;60.93;100894.53;5040549;28;20373;-77
2022/08/26 00:35:05;;;;;;;;;;;;;;;20.52;61.39;100889.25;5019314;28;19951;-78
2022/08/26 00:37:31;;;;;;;;;;;;;;;20.52;62.65;100898.94;5028967;28;20412;-77
2022/08/26 00:39:56;;;;;;;;;;;;;;;20.51;62.74;100906.00;5040998;28;20048;-77
2022/08/26 00:42:21;;;;;;;;;;;;;;;20.52;63.00;100907.72;5024405;28;19931;-77
2022/08/26 00:44:47;;;;;;;;;;;;;;;20.48;63.53;100902.69;5026811;28;19928;-77
2022/08/26 00:47:19;;;;;;;;;;;;;;;20.43;64.54;100907.41;5043483;28;19929;-77
2022/08/26 00:49:46;;;;;;;;;;;;;;;20.46;64.77;100904.59;5038684;28;19921;-77
2022/08/26 00:52:14;;;;;;;;;;;;;;;20.46;65.20;100901.94;5040567;28;20385;-77
2022/08/26 00:54:45;;;;;;;;;;;;;;;20.46;65.30;100908.09;5033968;28;20437;-77
2022/08/26 00:57:12;;;;;;;;;;;;;;;20.45;65.75;100914.28;5043592;28;20385;-78
2022/08/26 00:59:38;;;;;;;;;;;;;;;20.45;65.99;100909.00;5045746;28;20313;-77
2022/08/26 01:02:04;;;;;;;;;;;;;;;20.44;66.48;100911.75;5043416;28;20011;-77
2022/08/26 01:04:32;;;;;;;;;;;;;;;20.41;66.94;100920.72;5033723;28;19924;-77
2022/08/26 01:06:57;;;;;;;;;;;;;;;20.43;66.48;100918.81;5036948;28;19921;-77
2022/08/26 01:09:23;;;;;;;;;;;;;;;20.39;67.06;100921.72;5033050;28;20537;-77
2022/08/26 01:11:49;;;;;;;;;;;;;;;20.41;67.27;100922.50;5021188;28;19979;-77
2022/08/26 01:14:16;;;;;;;;;;;;;;;20.39;67.21;100925.22;5039209;28;19979;-77
2022/08/26 01:16:42;;;;;;;;;;;;;;;20.38;67.83;100928.81;5038651;28;19982;-77
2022/08/26 01:19:22;;;;;;;;;;;;;;;20.35;67.97;100921.91;5037535;28;19951;-77
2022/08/26 01:21:53;;;;;;;;;;;;;;;20.34;68.05;100935.19;5036197;28;19925;-77
2022/08/26 01:24:19;;;;;;;;;;;;;;;20.35;68.22;100929.81;5037097;28;19939;-77
2022/08/26 01:26:44;;;;;;;;;;;;;;;20.33;68.15;100942.25;5039076;28;20027;-77
2022/08/26 01:29:14;;;;;;;;;;;;;;;20.30;68.48;100939.78;5040413;28;19935;-77
2022/08/26 01:31:48;;;;;;;;;;;;;;;20.30;68.83;100947.72;5033055;28;20163;-77
2022/08/26 01:34:16;;;;;;;;;;;;;;;20.22;69.04;100949.09;5036063;28;19928;-77
2022/08/26 01:36:41;;;;;;;;;;;;;;;20.21;69.33;100952.66;5049681;28;19979;-77
2022/08/26 01:39:07;;;;;;;;;;;;;;;20.25;69.08;100947.13;5039695;28;19933;-77
2022/08/26 01:41:33;;;;;;;;;;;;;;;20.29;68.91;100953.09;5032945;28;20446;-77
2022/08/26 01:44:00;;;;;;;;;;;;;;;20.17;69.65;100949.34;5022572;28;19928;-77
2022/08/26 01:46:26;;;;;;;;;;;;;;;20.24;69.13;100950.69;5043162;28;19921;-77
2022/08/26 01:48:53;;;;;;;;;;;;;;;20.19;69.72;100947.50;5023140;28;19920;-77
2022/08/26 01:51:20;;;;;;;;;;;;;;;20.20;69.47;100954.44;5039063;28;19920;-77
2022/08/26 01:53:46;;;;;;;;;;;;;;;20.16;70.05;100960.00;5045178;28;19925;-77
2022/08/26 01:56:12;;;;;;;;;;;;;;;20.21;69.90;100960.56;5022638;28;19935;-77
2022/08/26 01:58:42;;;;;;;;;;;;;;;20.17;70.07;100959.91;5036638;28;19951;-77
2022/08/26 02:01:08;;;;;;;;;;;;;;;20.10;70.37;100969.13;5037970;28;19925;-77
2022/08/26 02:03:35;;;;;;;;;;;;;;;20.15;70.54;100966.19;5040011;28;20010;-77
2022/08/26 02:06:04;;;;;;;;;;;;;;;20.15;70.19;100967.06;5039308;28;19964;-77
2022/08/26 02:08:38;;;;;;;;;;;;;;;20.14;70.44;100967.16;5038562;28;19916;-77
2022/08/26 02:11:04;;;;;;;;;;;;;;;20.16;70.43;100963.50;5041153;28;19998;-77
2022/08/26 02:13:31;;;;;;;;;;;;;;;20.16;70.67;100967.91;5044670;28;20640;-77
2022/08/26 02:15:57;;;;;;;;;;;;;;;20.12;70.87;100971.66;5044590;28;20003;-77
2022/08/26 02:18:23;;;;;;;;;;;;;;;20.10;71.04;100974.41;5037290;28;20024;-77
2022/08/26 02:20:48;;;;;;;;;;;;;;;20.07;71.22;100971.03;5038432;28;19927;-77
2022/08/26 02:23:13;;;;;;;;;;;;;;;20.07;71.11;100981.59;5040105;28;19929;-77
2022/08/26 02:25:55;;;;;;;;;;;;;;;20.04;70.99;100966.78;5041307;28;19963;-77
2022/08/26 02:28:20;;;;;;;;;;;;;;;20.08;71.06;100971.00;5035148;28;20072;-77
2022/08/26 02:30:46;;;;;;;;;;;;;;;20.05;71.20;100972.94;5041353;28;19921;-77
2022/08/26 02:33:11;;;;;;;;;;;;;;;20.07;70.70;100974.53;5040841;28;19928;-77
2022/08/26 02:35:37;;;;;;;;;;;;;;;20.03;71.44;100972.16;5040052;28;19921;-77
2022/08/26 02:38:04;;;;;;;;;;;;;;;20.01;71.67;100974.03;5038815;28;19960;-77
2022/08/26 02:40:32;;;;;;;;;;;;;;;19.87;71.97;100977.47;5040251;28;20004;-77
2022/08/26 02:42:57;;;;;;;;;;;;;;;19.98;71.63;100968.94;5023346;28;20012;-77
2022/08/26 02:45:23;;;;;;;;;;;;;;;20.03;71.24;100983.53;5018591;28;20422;-77
2022/08/26 02:47:49;;;;;;;;;;;;;;;20.00;71.45;100972.31;5023206;28;19936;-77
2022/08/26 02:50:14;;;;;;;;;;;;;;;20.00;71.42;100975.81;5018977;28;19921;-77
2022/08/26 02:52:40;;;;;;;;;;;;;;;20.00;71.34;100977.59;5029088;28;21137;-77
2022/08/26 02:55:06;;;;;;;;;;;;;;;19.94;71.62;100983.22;5032580;28;19924;-77
2022/08/26 02:57:31;;;;;;;;;;;;;;;20.00;71.46;100983.72;5032987;28;19941;-77
2022/08/26 02:59:56;;;;;;;;;;;;;;;19.98;71.57;100979.47;5041717;28;19936;-77
2022/08/26 03:02:22;;;;;;;;;;;;;;;19.93;71.59;100974.47;5043836;28;20015;-77
2022/08/26 03:04:48;;;;;;;;;;;;;;;19.94;71.77;100972.66;5040976;28;19980;-77
2022/08/26 03:07:13;;;;;;;;;;;;;;;19.94;71.79;100972.66;5040669;28;20340;-80
2022/08/26 03:09:38;;;;;;;;;;;;;;;19.92;71.64;100972.75;5025464;28;20849;-79
2022/08/26 03:12:04;;;;;;;;;;;;;;;19.96;71.69;100966.41;5017647;28;20303;-80
2022/08/26 03:14:29;;;;;;;;;;;;;;;19.96;71.57;100966.41;5020593;28;20232;-79
2022/08/26 03:16:54;;;;;;;;;;;;;;;19.90;71.96;100972.00;5021789;28;20020;-80
2022/08/26 03:19:21;;;;;;;;;;;;;;;19.90;71.89;100966.75;5041836;28;19972;-79
2022/08/26 03:21:46;;;;;;;;;;;;;;;19.89;72.03;100970.31;5010348;28;20422;-79
2022/08/26 03:24:12;;;;;;;;;;;;;;;19.90;72.12;100973.78;5012346;28;19925;-80
2022/08/26 03:26:37;;;;;;;;;;;;;;;19.87;72.09;100966.91;5038590;28;20108;-79
2022/08/26 03:31:47;;;;;;;;;;;;;;;19.88;72.21;100973.88;5038118;28;20039;-79
2022/08/26 03:34:12;;;;;;;;;;;;;;;19.80;72.80;100978.72;5006150;28;22081;-80
2022/08/26 03:36:38;;;;;;;;;;;;;;;19.86;72.44;100973.09;5028380;28;19925;-79
2022/08/26 03:39:03;;;;;;;;;;;;;;;19.90;72.23;100968.53;5024436;28;19933;-80
2022/08/26 03:41:31;;;;;;;;;;;;;;;19.90;72.23;100972.00;5026918;28;19944;-80
2022/08/26 03:43:56;;;;;;;;;;;;;;;19.92;72.18;100971.91;5025064;28;19925;-79
2022/08/26 03:46:22;;;;;;;;;;;;;;;19.88;72.16;100979.13;5039120;28;19920;-80
2022/08/26 03:48:47;;;;;;;;;;;;;;;19.92;72.19;100972.75;5023396;28;19929;-79
2022/08/26 03:51:14;;;;;;;;;;;;;;;19.91;72.25;100965.78;5018335;28;19925;-79
2022/08/26 03:53:39;;;;;;;;;;;;;;;19.92;72.40;100979.81;5028071;28;19921;-79
2022/08/26 03:56:05;;;;;;;;;;;;;;;19.93;72.27;100977.13;5017647;28;19972;-79
2022/08/26 03:58:30;;;;;;;;;;;;;;;19.91;72.36;100972.84;5020277;28;19925;-79
2022/08/26 04:00:56;;;;;;;;;;;;;;;19.95;72.28;100977.88;5030841;28;19924;-79
2022/08/26 04:06:06;;;;;;;;;;;;;;;19.94;72.47;100975.31;5031079;28;19967;-79
2022/08/26 04:08:32;;;;;;;;;;;;;;;19.96;72.23;100976.94;5027492;28;20023;-79
2022/08/26 04:10:58;;;;;;;;;;;;;;;19.90;72.47;100976.44;5028274;28;19925;-79
2022/08/26 04:13:23;;;;;;;;;;;;;;;19.94;72.28;100976.16;5017819;28;19925;-80
2022/08/26 04:15:49;;;;;;;;;;;;;;;19.96;72.35;100978.72;5021448;28;20420;-79
2022/08/26 04:18:15;;;;;;;;;;;;;;;19.96;72.21;100976.94;5030807;28;19929;-79
2022/08/26 04:20:40;;;;;;;;;;;;;;;19.94;72.50;100980.56;5025239;28;19947;-79
2022/08/26 04:23:05;;;;;;;;;;;;;;;19.95;72.50;100980.50;5037268;28;19979;-79
2022/08/26 04:25:31;;;;;;;;;;;;;;;19.91;72.81;100980.75;5014238;28;19991;-79
2022/08/26 04:27:56;;;;;;;;;;;;;;;19.92;72.42;100977.19;5019194;28;19932;-80
2022/08/26 04:30:21;;;;;;;;;;;;;;;19.92;72.76;100970.13;5019486;28;19932;-80
2022/08/26 04:32:47;;;;;;;;;;;;;;;19.95;72.58;100972.59;5025278;28;19925;-80
2022/08/26 04:35:12;;;;;;;;;;;;;;;19.96;72.36;100973.44;5028766;28;19925;-79
2022/08/26 04:37:38;;;;;;;;;;;;;;;19.96;72.28;100971.66;5021144;28;19925;-80
2022/08/26 04:40:04;;;;;;;;;;;;;;;19.94;72.31;100972.66;5021319;28;19930;-80
2022/08/26 04:42:32;;;;;;;;;;;;;;;19.91;72.50;100981.59;5020588;28;20039;-80
2022/08/26 04:44:57;;;;;;;;;;;;;;;19.97;72.17;100985.69;5011414;28;20324;-80
2022/08/26 04:47:23;;;;;;;;;;;;;;;19.91;72.64;100984.22;5013227;28;19975;-79
2022/08/26 04:49:48;;;;;;;;;;;;;;;19.94;72.40;100981.44;5025549;28;19924;-79
2022/08/26 04:52:14;;;;;;;;;;;;;;;19.99;72.34;100983.81;5039718;28;19925;-80
2022/08/26 04:54:39;;;;;;;;;;;;;;;20.01;72.03;100989.84;5024843;28;20024;-80
2022/08/26 04:57:05;;;;;;;;;;;;;;;20.02;72.20;100995.06;5022858;28;19995;-79
2022/08/26 04:59:30;;;;;;;;;;;;;;;19.94;72.25;100991.13;5025618;28;19928;-80
2022/08/26 05:01:58;;;;;;;;;;;;;;;19.91;72.42;100997.41;5045540;28;19921;-79
2022/08/26 05:04:23;;;;;;;;;;;;;;;19.96;71.99;100997.19;5043698;28;19935;-80
2022/08/26 05:06:49;;;;;;;;;;;;;;;19.95;72.38;101006.00;5048489;28;19920;-79
2022/08/26 05:09:17;;;;;;;;;;;;;;;19.87;72.65;100998.53;5025408;28;20410;-80
2022/08/26 05:11:42;;;;;;;;;;;;;;;19.84;72.67;101003.13;5046759;28;20575;-79
2022/08/26 05:14:08;;;;;;;;;;;;;;;19.93;72.47;100990.28;5045046;28;19924;-79
2022/08/26 05:16:33;;;;;;;;;;;;;;;19.91;72.27;100993.94;5048214;28;19924;-79
2022/08/26 05:18:59;;;;;;;;;;;;;;;19.90;72.34;100995.75;5027375;28;19925;-80
2022/08/26 05:21:25;;;;;;;;;;;;;;;19.95;72.25;100991.06;5019998;28;20011;-79
2022/08/26 05:23:51;;;;;;;;;;;;;;;19.88;72.31;100994.94;5018075;28;19929;-79
2022/08/26 05:26:21;;;;;;;;;;;;;;;19.90;72.22;100995.75;5019715;28;19932;-79
2022/08/26 05:28:46;;;;;;;;;;;;;;;19.95;72.05;100992.81;5026479;28;19944;-79
2022/08/26 05:31:13;;;;;;;;;;;;;;;19.96;72.06;100992.75;5023360;28;20605;-80
2022/08/26 05:33:38;;;;;;;;;;;;;;;19.83;72.60;100999.66;5022940;28;19929;-79
2022/08/26 05:36:14;;;;;;;;;;;;;;;19.97;72.05;101004.13;5033658;28;19955;-80
2022/08/26 05:38:42;;;;;;;;;;;;;;;19.90;72.61;101005.44;5039228;28;19933;-79
2022/08/26 05:41:18;;;;;;;;;;;;;;;19.89;72.36;101004.56;5039374;28;20027;-79
2022/08/26 05:43:44;;;;;;;;;;;;;;;19.89;72.25;101009.84;5041941;28;19917;-80
2022/08/26 05:46:09;;;;;;;;;;;;;;;19.90;72.30;101013.34;5047103;28;20011;-79
2022/08/26 05:48:34;;;;;;;;;;;;;;;19.95;72.19;101011.28;5043180;28;19978;-80
2022/08/26 05:51:02;;;;;;;;;;;;;;;19.95;72.04;101012.16;5043236;28;20719;-79
2022/08/26 05:53:27;;;;;;;;;;;;;;;19.98;72.04;101011.97;5045884;28;19975;-80
2022/08/26 05:55:53;;;;;;;;;;;;;;;19.94;72.02;101009.56;5042292;28;19964;-79
2022/08/26 05:58:20;;;;;;;;;;;;;;;19.94;72.09;101012.22;5038688;28;20338;-80
2022/08/26 06:00:54;;;;;;;;;;;;;;;19.92;72.13;101012.31;5028255;28;19929;-80
2022/08/26 06:03:20;;;;;;;;;;;;;;;19.92;71.98;101011.47;5025276;28;19936;-80
2022/08/26 06:05:45;;;;;;;;;;;;;;;19.99;71.60;101021.59;5018476;28;19921;-79
2022/08/26 06:08:12;;;;;;;;;;;;;;;20.01;71.84;101013.59;5026963;28;20605;-79
2022/08/26 06:10:45;;;;;;;;;;;;;;;19.99;72.04;101020.75;5022947;28;19928;-80
2022/08/26 06:13:10;;;;;;;;;;;;;;;20.00;71.71;101014.50;5037965;28;19929;-80
2022/08/26 06:15:40;;;;;;;;;;;;;;;20.00;71.83;101020.63;5043246;28;20405;-80
2022/08/26 06:18:06;;;;;;;;;;;;;;;20.00;71.53;101023.28;5042730;28;19964;-80
2022/08/26 06:20:31;;;;;;;;;;;;;;;20.00;71.84;101023.28;5037396;28;19996;-80
2022/08/26 06:25:41;;;;;;;;;;;;;;;20.03;71.61;101024.88;5020332;28;19967;-80
2022/08/26 06:28:07;;;;;;;;;;;;;;;20.06;71.69;101027.34;5019137;28;19968;-80
2022/08/26 06:30:36;;;;;;;;;;;;;;;20.00;71.70;101023.28;5031230;28;19932;-80
2022/08/26 06:33:02;;;;;;;;;;;;;;;20.02;71.40;101025.84;5028159;28;19924;-80
2022/08/26 06:35:27;;;;;;;;;;;;;;;20.00;71.62;101023.28;5024333;28;20433;-80
2022/08/26 06:37:53;;;;;;;;;;;;;;;20.00;71.49;101025.91;5026097;28;19995;-79
2022/08/26 06:40:19;;;;;;;;;;;;;;;19.99;71.70;101026.88;5020292;28;20278;-80
2022/08/26 06:42:45;;;;;;;;;;;;;;;19.99;71.57;101033.94;5021263;28;20428;-80
2022/08/26 06:45:10;;;;;;;;;;;;;;;19.99;71.38;101029.50;5020532;28;19929;-80
2022/08/26 06:47:35;;;;;;;;;;;;;;;19.95;72.08;101032.38;5023445;28;19925;-80
2022/08/26 06:50:01;;;;;;;;;;;;;;;20.03;71.38;101038.06;5019482;28;19921;-79
2022/08/26 06:52:26;;;;;;;;;;;;;;;20.06;71.08;101036.13;5007067;28;20003;-79
2022/08/26 06:54:51;;;;;;;;;;;;;;;20.04;71.35;101042.41;5018315;28;20027;-80
2022/08/26 06:57:17;;;;;;;;;;;;;;;19.98;71.65;101035.72;5025634;28;19940;-80
2022/08/26 06:59:42;;;;;;;;;;;;;;;20.03;71.42;101043.34;5037280;28;19933;-80
2022/08/26 07:02:07;;;;;;;;;;;;;;;20.03;71.50;101036.28;5042838;28;19925;-79
2022/08/26 07:04:33;;;;;;;;;;;;;;;20.03;71.26;101048.63;5039982;28;19929;-79
2022/08/26 07:06:59;;;;;;;;;;;;;;;20.01;71.41;101040.81;5043614;28;19920;-80
2022/08/26 07:09:26;;;;;;;;;;;;;;;20.07;71.21;101043.09;5040779;28;19925;-80
2022/08/26 07:11:52;;;;;;;;;;;;;;;20.03;71.49;101040.72;5039892;28;19936;-79
2022/08/26 07:14:17;;;;;;;;;;;;;;;20.11;71.35;101041.19;5043357;28;19925;-80
2022/08/26 07:16:43;;;;;;;;;;;;;;;20.11;71.01;101043.81;5030962;28;19925;-81
2022/08/26 07:19:08;;;;;;;;;;;;;;;20.08;70.69;101044.00;5034459;28;19931;-79
2022/08/26 07:21:34;;;;;;;;;;;;;;;20.12;70.87;101045.50;5043145;28;19936;-79
2022/08/26 07:24:00;;;;;;;;;;;;;;;20.12;70.73;101049.00;5029340;28;19925;-80
2022/08/26 07:26:28;;;;;;;;;;;;;;;20.02;70.70;101049.56;5021786;28;19967;-79
2022/08/26 07:28:55;;;;;;;;;;;;;;;20.10;70.73;101050.88;5015804;28;19928;-79
2022/08/26 07:31:24;;;;;;;;;;;;;;;20.12;70.40;101042.88;5014541;28;20007;-80
2022/08/26 07:33:49;;;;;;;;;;;;;;;20.07;70.68;101047.53;5032615;28;19920;-80
2022/08/26 07:36:17;;;;;;;;;;;;;;;20.09;70.45;101054.44;5040306;28;19921;-79
2022/08/26 07:38:46;;;;;;;;;;;;;;;20.10;70.38;101056.16;5034927;28;20389;-80
2022/08/26 07:41:12;;;;;;;;;;;;;;;20.12;70.18;101054.28;5037442;28;19925;-79
2022/08/26 07:43:38;;;;;;;;;;;;;;;20.16;70.09;101062.88;5035447;28;19951;-79
2022/08/26 07:46:04;;;;;;;;;;;;;;;20.20;70.15;101059.13;5032520;28;19939;-80
2022/08/26 07:48:30;;;;;;;;;;;;;;;20.19;69.98;101065.34;5042239;28;20417;-80
2022/08/26 07:50:55;;;;;;;;;;;;;;;20.17;70.11;101060.13;5040995;28;19925;-80
2022/08/26 07:53:28;;;;;;;;;;;;;;;20.15;70.04;101067.28;5093394;27;19968;-80
2022/08/26 07:55:53;;;;;;;;;;;;;;;20.13;69.86;101063.91;5062973;28;20480;-80
2022/08/26 07:58:18;;;;;;;;;;;;;;;20.17;70.20;101065.41;5065531;28;20023;-80
2022/08/26 08:00:44;;;;;;;;;;;;;;;20.20;70.31;101064.41;5058219;28;19924;-80
2022/08/26 08:03:10;;;;;;;;;;;;;;;20.20;70.08;101065.22;5059265;28;19977;-80
2022/08/26 08:05:35;;;;;;;;;;;;;;;20.22;70.23;101071.31;5058843;28;19925;-80
2022/08/26 08:08:03;;;;;;;;;;;;;;;20.26;69.87;101075.44;5059102;28;19929;-80
2022/08/26 08:10:28;;;;;;;;;;;;;;;20.25;69.93;101072.91;5052989;28;19947;-80
2022/08/26 08:12:54;;;;;;;;;;;;;;;20.26;70.11;101071.97;5058676;28;20281;-80
2022/08/26 08:15:23;;;;;;;;;;;;;;;20.28;70.01;101070.94;5065337;28;20469;-80
2022/08/26 08:17:49;;;;;;;;;;;;;;;20.28;69.73;101070.94;5062816;28;19931;-80
2022/08/26 08:20:15;;;;;;;;;;;;;;;20.20;70.49;101072.31;5056608;28;19979;-80
2022/08/26 08:22:41;;;;;;;;;;;;;;;20.22;70.03;101065.16;5062047;28;19951;-80
2022/08/26 08:25:07;;;;;;;;;;;;;;;20.26;69.81;101070.16;5054545;28;19924;-80
2022/08/26 08:27:34;;;;;;;;;;;;;;;20.25;70.31;101075.53;5057003;28;19925;-80
2022/08/26 08:29:59;;;;;;;;;;;;;;;20.30;69.91;101081.41;5064155;28;20011;-80
2022/08/26 08:32:25;;;;;;;;;;;;;;;20.31;70.01;101076.06;5065117;28;20409;-80
2022/08/26 08:34:50;;;;;;;;;;;;;;;20.30;69.87;101079.63;5059858;28;19921;-80
2022/08/26 08:37:16;;;;;;;;;;;;;;;20.26;69.81;101078.09;5062788;28;19921;-80
2022/08/26 08:39:41;;;;;;;;;;;;;;;20.29;69.82;101074.44;5058272;28;19917;-80
2022/08/26 08:42:12;;;;;;;;;;;;;;;20.30;69.67;101082.25;5063665;28;19924;-80
2022/08/26 08:44:40;;;;;;;;;;;;;;;20.26;69.68;101074.63;5063763;28;19967;-80
2022/08/26 08:47:17;;;;;;;;;;;;;;;20.17;69.79;101073.31;5054434;28;19920;-80
2022/08/26 08:49:43;;;;;;;;;;;;;;;20.19;69.62;101081.16;5067244;28;19913;-80
2022/08/26 08:52:13;;;;;;;;;;;;;;;20.23;69.48;101074.78;5065339;28;19931;-80
2022/08/26 08:54:38;;;;;;;;;;;;;;;20.28;69.39;101076.22;5066173;28;19983;-80
2022/08/26 08:57:19;;;;;;;;;;;;;;;20.26;69.42;101077.25;5057996;28;20038;-80
2022/08/26 08:59:53;;;;;;;;;;;;;;;20.24;69.57;101071.19;5058684;28;19925;-79
2022/08/26 09:02:54;;;;;;;;;;;;;;;20.28;69.62;101072.72;5071391;28;19916;-80
2022/08/26 09:05:21;;;;;;;;;;;;;;;20.29;69.51;101080.53;5085680;28;19934;-80
2022/08/26 09:07:53;;;;;;;;;;;;;;;20.23;69.72;101082.69;5069431;28;19920;-79
2022/08/26 09:10:21;;;;;;;;;;;;;;;20.25;69.34;101086.94;5049618;28;19913;-80
2022/08/26 09:12:47;;;;;;;;;;;;;;;20.24;69.30;101087.88;5040821;28;19924;-80
2022/08/26 09:15:15;;;;;;;;;;;;;;;20.24;69.04;101079.97;5045410;28;20390;-80
2022/08/26 09:18:10;;;;;;;;;;;;;;;20.20;69.02;101080.25;5053449;28;19936;-79
2022/08/26 09:20:47;;;;;;;;;;;;;;;20.25;68.99;101086.09;5046506;28;20382;-80
2022/08/26 09:23:13;;;;;;;;;;;;;;;20.21;68.82;101084.56;5043730;28;20378;-80
2022/08/26 09:25:46;;;;;;;;;;;;;;;20.16;69.34;101094.53;5047635;28;19927;-80
2022/08/26 09:28:15;;;;;;;;;;;;;;;20.18;69.10;101085.59;5047393;28;19932;-80
2022/08/26 09:30:40;;;;;;;;;;;;;;;20.21;69.21;101093.31;5048616;28;20390;-80
2022/08/26 09:33:16;;;;;;;;;;;;;;;20.21;68.70;101082.78;5047955;28;20019;-80
2022/08/26 09:35:45;;;;;;;;;;;;;;;20.23;69.00;101087.97;5047636;28;19921;-80
2022/08/26 09:38:31;;;;;;;;;;;;;;;20.21;69.04;101082.78;5046600;28;19927;-80
2022/08/26 09:40:58;;;;;;;;;;;;;;;20.22;68.66;101091.53;5049421;28;19924;-80
2022/08/26 09:43:24;;;;;;;;;;;;;;;20.22;68.61;101095.03;5064575;28;20036;-79
2022/08/26 09:45:54;;;;;;;;;;;;;;;20.21;68.78;101081.91;5044645;28;20007;-79
2022/08/26 09:48:28;;;;;;;;;;;;;;;20.18;68.90;101090.00;5050008;28;19939;-79
2022/08/26 09:51:22;;;;;;;;;;;;;;;20.11;69.26;101092.16;5055518;28;19939;-80
2022/08/26 09:53:58;;;;;;;;;;;;;;;20.13;69.03;101090.28;5044539;28;19936;-80
2022/08/26 09:56:24;;;;;;;;;;;;;;;20.18;68.98;101092.63;5047292;28;19921;-79
2022/08/26 09:58:50;;;;;;;;;;;;;;;20.20;68.81;101093.44;5049944;28;19917;-80
2022/08/26 10:01:25;;;;;;;;;;;;;;;20.16;69.21;101084.81;5048842;28;20402;-79
2022/08/26 10:03:51;;;;;;;;;;;;;;;20.13;69.40;101092.91;5049184;28;20400;-80
2022/08/26 10:06:16;;;;;;;;;;;;;;;20.17;69.18;101085.69;5046907;28;19924;-80
2022/08/26 10:08:43;;;;;;;;;;;;;;;20.18;69.42;101090.84;5041182;28;19982;-80
2022/08/26 10:11:20;;;;;;;;;;;;;;;20.20;69.33;101088.97;5045169;28;19940;-80
2022/08/26 10:13:48;;;;;;;;;;;;;;;20.20;69.38;101094.25;5051527;28;20024;-79
2022/08/26 10:16:19;;;;;;;;;;;;;;;20.19;69.19;101089.94;5061769;28;20385;-80
2022/08/26 10:18:54;;;;;;;;;;;;;;;20.09;69.46;101091.38;5066783;28;19951;-80
2022/08/26 10:21:22;;;;;;;;;;;;;;;20.07;69.30;101093.22;5054093;28;20011;-79
2022/08/26 10:23:50;;;;;;;;;;;;;;;20.13;69.32;101090.28;5047882;28;19956;-79
2022/08/26 10:26:21;;;;;;;;;;;;;;;20.22;69.00;101086.28;5047252;28;19924;-80
2022/08/26 10:28:46;;;;;;;;;;;;;;;20.22;68.74;101081.84;5046516;28;20420;-80
2022/08/26 10:31:32;;;;;;;;;;;;;;;20.14;69.11;101081.44;5047315;28;19928;-80
2022/08/26 10:33:59;;;;;;;;;;;;;;;20.28;68.90;101086.78;5038803;28;20016;-80
2022/08/26 10:39:30;;;;;;;;;;;;;;;20.17;68.90;101086.50;5043545;28;19942;-80
2022/08/26 10:42:00;;;;;;;;;;;;;;;20.16;68.99;101078.69;5042125;28;19925;-80
2022/08/26 10:44:27;;;;;;;;;;;;;;;20.26;68.42;101079.91;5039087;28;20003;-80
2022/08/26 10:47:00;;;;;;;;;;;;;;;20.29;68.36;101077.09;5047600;28;19925;-80
2022/08/26 10:49:25;;;;;;;;;;;;;;;20.22;68.41;101073.09;5043808;28;20470;-80
2022/08/26 10:51:57;;;;;;;;;;;;;;;20.28;68.53;101072.72;5045438;28;19933;-80
2022/08/26 10:54:30;;;;;;;;;;;;;;;20.34;68.51;101072.38;5046359;28;19947;-80
2022/08/26 10:56:58;;;;;;;;;;;;;;;20.36;68.40;101078.41;5037847;28;19933;-80
2022/08/26 10:59:53;;;;;;;;;;;;;;;20.34;68.51;101077.66;5038234;28;20007;-80
2022/08/26 11:02:30;;;;;;;;;;;;;;;20.34;68.71;101070.59;5030193;28;19975;-80
2022/08/26 11:04:57;;;;;;;;;;;;;;;20.33;68.44;101068.91;5043338;28;19927;-80
2022/08/26 11:07:35;;;;;;;;;;;;;;;20.34;68.90;101075.88;5041082;28;19924;-80
2022/08/26 11:10:00;;;;;;;;;;;;;;;20.37;68.39;101080.13;5042265;28;19932;-79
2022/08/26 11:12:35;;;;;;;;;;;;;;;20.37;68.16;101074.00;5040471;28;19982;-80
2022/08/26 11:15:10;;;;;;;;;;;;;;;20.35;68.32;101072.28;5043671;28;19935;-80
2022/08/26 11:17:45;;;;;;;;;;;;;;;20.34;67.91;101062.69;5044739;28;19928;-81
2022/08/26 11:20:39;;;;;;;;;;;;;;;20.38;67.94;101076.56;5045266;28;19928;-80
2022/08/26 11:23:22;;;;;;;;;;;;;;;20.39;68.21;101065.06;5038857;28;20362;-80
2022/08/26 11:26:00;;;;;;;;;;;;;;;20.36;67.98;101062.59;5042399;28;19921;-80
2022/08/26 11:28:39;;;;;;;;;;;;;;;20.39;67.58;101059.78;5043626;28;19917;-80
2022/08/26 11:31:10;;;;;;;;;;;;;;;20.40;67.65;101063.28;5049986;28;20019;-80
2022/08/26 11:33:44;;;;;;;;;;;;;;;20.31;68.11;101062.00;5057505;28;20351;-80
2022/08/26 11:36:26;;;;;;;;;;;;;;;20.44;67.58;101056.91;5045748;28;19964;-80
2022/08/26 11:38:52;;;;;;;;;;;;;;;20.50;67.02;101057.38;5051930;28;20002;-80
2022/08/26 11:41:20;;;;;;;;;;;;;;;20.54;66.56;101052.75;5035125;28;19944;-80
2022/08/26 11:43:48;;;;;;;;;;;;;;;20.54;66.86;101048.34;5050490;28;19917;-80
2022/08/26 11:46:22;;;;;;;;;;;;;;;20.51;66.53;101048.53;5053695;28;19924;-80
2022/08/26 11:48:47;;;;;;;;;;;;;;;20.56;66.41;101053.56;5044517;28;19921;-80
2022/08/26 11:51:21;;;;;;;;;;;;;;;20.55;66.44;101057.13;5060775;28;19932;-80
2022/08/26 11:53:46;;;;;;;;;;;;;;;20.58;66.36;101056.94;5066079;28;20691;-80
2022/08/26 11:56:14;;;;;;;;;;;;;;;20.65;66.40;101056.47;5059219;28;20133;-80
2022/08/26 11:58:42;;;;;;;;;;;;;;;20.64;66.24;101056.59;5059754;28;19931;-80
2022/08/26 12:01:09;;;;;;;;;;;;;;;20.63;65.99;101052.25;5065021;28;20444;-80
2022/08/26 12:03:43;;;;;;;;;;;;;;;20.63;65.89;101053.09;5064329;28;19927;-80
2022/08/26 12:06:10;;;;;;;;;;;;;;;20.67;65.97;101059.06;5062602;28;19966;-80
2022/08/26 12:08:41;;;;;;;;;;;;;;;20.65;66.05;101050.38;5061318;28;19925;-80
2022/08/26 12:11:08;;;;;;;;;;;;;;;20.65;65.91;101051.19;5054197;28;19925;-80
2022/08/26 12:13:37;;;;;;;;;;;;;;;20.68;65.69;101047.53;5060146;28;19981;-80
2022/08/26 12:16:04;;;;;;;;;;;;;;;20.67;66.05;101054.63;5066277;28;19970;-80
2022/08/26 12:18:30;;;;;;;;;;;;;;;20.72;65.46;101051.69;5065824;28;19928;-80
2022/08/26 12:20:58;;;;;;;;;;;;;;;20.72;65.53;101051.69;5064063;28;19924;-80
2022/08/26 12:23:43;;;;;;;;;;;;;;;20.72;65.16;101051.69;5064792;28;20377;-80
2022/08/26 12:26:09;;;;;;;;;;;;;;;20.70;65.19;101054.44;5063440;28;19961;-80
2022/08/26 12:28:40;;;;;;;;;;;;;;;20.71;65.26;101052.63;5063044;28;20476;-81
2022/08/26 12:31:06;;;;;;;;;;;;;;;20.77;65.38;101049.63;5062510;28;19940;-81
2022/08/26 12:33:33;;;;;;;;;;;;;;;20.78;65.97;101056.63;5062328;28;20333;-81
2022/08/26 12:36:00;;;;;;;;;;;;;;;20.79;66.21;101048.63;5063041;28;19931;-80
2022/08/26 12:38:26;;;;;;;;;;;;;;;20.74;66.69;101061.22;5064970;28;20412;-80
2022/08/26 12:40:52;;;;;;;;;;;;;;;20.72;67.03;101059.63;5066126;28;19948;-80
2022/08/26 12:43:53;;;;;;;;;;;;;;;20.72;66.67;101056.97;5066415;28;20009;-81
2022/08/26 12:46:24;;;;;;;;;;;;;;;20.73;67.00;101051.63;5040474;28;20027;-80
2022/08/26 12:48:49;;;;;;;;;;;;;;;20.72;66.93;101047.28;5065235;28;19928;-80
2022/08/26 12:51:25;;;;;;;;;;;;;;;20.77;66.76;101050.50;5068663;28;20381;-80